CheckWX is a tool to help pilots better visualize weather data.  It is not intended as a substitute for an official pre-flight weather briefing.

00:54:21 UTC

EIDW METAR
Dublin Airport
Dublin, Ireland
Current

24 mins ago

EIDW 240030Z 24006KT 190V270 9999 FEW017 BKN050 06/01 Q1033 NOSIG
Observed
Mar-24 @ 00:30 UTC
Wind
  • 240° at 6 KTS
Visibility
10,000+ meters
Flight Rules
VFR
Cloud Levels
  • Few at 1,700' AGL
  • Broken at 5,000' AGL
Temperature
C / 43°F
Dewpoint
C / 34°F
Humidity
71%
Altimeter
30.5" Hg
Pressure
1032.91 hPa
Previous

54 mins ago

EIDW 240000Z 25005KT 210V280 9999 FEW017 BKN050 06/00 Q1033 NOSIG
Observed
Mar-24 @ 00:00 UTC
Wind
  • 250° at 5 KTS
Visibility
10,000+ meters
Flight Rules
VFR
Cloud Levels
  • Few at 1,700' AGL
  • Broken at 5,000' AGL
Temperature
C / 43°F
Dewpoint
C / 32°F
Humidity
66%
Altimeter
30.5" Hg
Pressure
1032.91 hPa
Previous

1 hour ago

EIDW 232330Z VRB03KT 9999 FEW017 SCT050 BKN200 04/00 Q1033 NOSIG
Observed
Mar-23 @ 23:30 UTC
Wind
  • Variable at 3 KTS
Visibility
10,000+ meters
Flight Rules
VFR
Cloud Levels
  • Few at 1,700' AGL
  • Scattered at 5,000' AGL
  • Broken at 20,000' AGL
Temperature
C / 39°F
Dewpoint
C / 32°F
Humidity
75%
Altimeter
30.5" Hg
Pressure
1032.91 hPa